Time;durP1;ratioP1;P1;durP2;ratioP2;P2;SDS_P1;SDS_P2;PMS_P1;PMS_P2;Temp;Humidity;BMP_temperature;BMP_pressure;BME280_temperature;BME280_humidity;BME280_pressure;Samples;Min_cycle;Max_cycle;Signal;HPM_P1;HPM_P2
2021/06/22 00:01:00;;;;;;;58.07;2.37;;;18.50;99.90;;;;;;5093704;28;20465;-73
2021/06/22 00:03:27;;;;;;;58.37;3.03;;;18.40;99.90;;;;;;5093238;28;20501;-73
2021/06/22 00:05:53;;;;;;;58.27;2.80;;;18.40;99.90;;;;;;5093459;28;20808;-73
2021/06/22 00:08:20;;;;;;;58.37;2.40;;;18.40;99.90;;;;;;5093674;28;20533;-73
2021/06/22 00:10:47;;;;;;;58.33;2.50;;;18.40;99.90;;;;;;5093119;28;20922;-73
2021/06/22 00:13:16;;;;;;;58.40;2.60;;;18.40;99.90;;;;;;5092599;28;20552;-73
2021/06/22 00:19:05;;;;;;;58.40;2.50;;;18.40;99.90;;;;;;5093251;28;20398;-73
2021/06/22 00:21:32;;;;;;;58.07;2.70;;;18.40;99.90;;;;;;5092801;28;20474;-73
2021/06/22 00:23:59;;;;;;;58.37;2.53;;;18.40;99.90;;;;;;5093048;28;20509;-73
2021/06/22 00:26:26;;;;;;;58.13;2.40;;;18.40;99.90;;;;;;5093139;28;20903;-73
2021/06/22 00:28:54;;;;;;;58.50;2.67;;;18.40;99.90;;;;;;5092920;28;20829;-73
2021/06/22 00:31:21;;;;;;;58.27;2.90;;;18.40;99.90;;;;;;5092694;28;20481;-73
2021/06/22 00:33:48;;;;;;;58.90;3.53;;;18.40;99.90;;;;;;5092842;28;20832;-73
2021/06/22 00:36:14;;;;;;;58.23;2.60;;;18.40;99.90;;;;;;5092642;28;20967;-72
2021/06/22 00:38:41;;;;;;;58.90;3.17;;;18.40;99.90;;;;;;5092773;28;20557;-73
2021/06/22 00:41:08;;;;;;;60.53;3.50;;;18.40;99.90;;;;;;5092290;28;20446;-73
2021/06/22 00:43:38;;;;;;;58.07;2.67;;;18.40;99.90;;;;;;5092536;28;20556;-73
2021/06/22 00:46:06;;;;;;;58.37;2.20;;;18.40;99.90;;;;;;5092669;28;20549;-73
2021/06/22 00:48:33;;;;;;;58.90;2.90;;;18.40;99.90;;;;;;5092657;28;20499;-73
2021/06/22 00:51:01;;;;;;;58.03;3.13;;;18.40;99.90;;;;;;5092219;28;20573;-73
2021/06/22 00:53:28;;;;;;;58.40;2.43;;;18.40;99.90;;;;;;5092679;28;20905;-73
2021/06/22 00:55:55;;;;;;;58.37;2.63;;;18.40;99.90;;;;;;5092319;28;21036;-73
2021/06/22 00:58:23;;;;;;;58.30;2.30;;;18.30;99.90;;;;;;5092481;28;20446;-73
2021/06/22 01:00:50;;;;;;;57.97;2.33;;;18.30;99.90;;;;;;5092265;28;20888;-73
2021/06/22 01:03:18;;;;;;;58.57;2.50;;;18.20;99.90;;;;;;5091832;28;20475;-73
2021/06/22 01:05:45;;;;;;;58.30;2.80;;;18.20;99.90;;;;;;5092538;28;20443;-73
2021/06/22 01:08:13;;;;;;;58.43;2.90;;;18.20;99.90;;;;;;5092342;28;20532;-73
2021/06/22 01:10:40;;;;;;;58.17;2.70;;;18.20;99.90;;;;;;5091832;28;21066;-73
2021/06/22 01:13:07;;;;;;;57.83;2.70;;;18.20;99.90;;;;;;5091860;28;20584;-73
2021/06/22 01:15:34;;;;;;;58.47;2.90;;;18.20;99.90;;;;;;5092286;28;20459;-73
2021/06/22 01:18:03;;;;;;;58.43;3.00;;;18.20;99.90;;;;;;5092057;28;20473;-73
2021/06/22 01:20:32;;;;;;;59.10;3.33;;;18.20;99.90;;;;;;5092168;28;20441;-73
2021/06/22 01:23:02;;;;;;;58.20;2.40;;;18.20;99.90;;;;;;5091552;28;20470;-73
2021/06/22 01:25:29;;;;;;;57.97;3.00;;;18.10;99.90;;;;;;5092087;28;20548;-73
2021/06/22 01:27:57;;;;;;;58.13;3.00;;;18.10;99.90;;;;;;5091894;28;20508;-73
2021/06/22 01:30:24;;;;;;;58.20;2.80;;;18.10;99.90;;;;;;5091562;28;20896;-73
2021/06/22 01:32:51;;;;;;;58.33;2.80;;;18.10;99.90;;;;;;5091729;28;20547;-73
2021/06/22 01:35:19;;;;;;;58.30;2.90;;;18.10;99.90;;;;;;5091598;28;20545;-73
2021/06/22 01:37:53;;;;;;;58.37;2.93;;;18.10;99.90;;;;;;5091831;28;21020;-73
2021/06/22 01:40:22;;;;;;;57.90;2.70;;;18.10;99.90;;;;;;5091812;28;20872;-73
2021/06/22 01:42:50;;;;;;;58.33;2.70;;;18.10;99.90;;;;;;5091380;28;20557;-73
2021/06/22 01:45:18;;;;;;;58.27;2.50;;;18.10;99.90;;;;;;5091996;28;20461;-73
2021/06/22 01:47:45;;;;;;;58.27;2.70;;;18.10;99.90;;;;;;5092055;28;20510;-73
2021/06/22 01:50:14;;;;;;;58.07;2.57;;;18.10;99.90;;;;;;5091564;28;20556;-72
2021/06/22 01:52:43;;;;;;;58.13;2.33;;;18.00;99.90;;;;;;5091700;28;20526;-72
2021/06/22 01:57:57;;;;;;;58.17;2.50;;;18.00;99.90;;;;;;5091808;28;20432;-73
2021/06/22 02:00:24;;;;;;;58.03;2.37;;;17.90;99.90;;;;;;5091727;28;20540;-73
2021/06/22 02:02:51;;;;;;;58.07;2.47;;;17.90;99.90;;;;;;5091314;28;20837;-72
2021/06/22 02:05:18;;;;;;;58.47;2.57;;;17.80;99.90;;;;;;5091531;28;20544;-73
2021/06/22 02:07:45;;;;;;;59.00;3.70;;;17.80;99.90;;;;;;5091387;28;20453;-73
2021/06/22 02:10:13;;;;;;;58.50;2.50;;;17.80;99.90;;;;;;5091382;28;21146;-73
2021/06/22 02:12:40;;;;;;;58.90;2.90;;;17.70;99.90;;;;;;5091213;28;20546;-73
2021/06/22 02:15:10;;;;;;;58.37;2.73;;;17.70;99.90;;;;;;5091551;28;20537;-73
2021/06/22 02:17:37;;;;;;;58.07;2.60;;;17.60;99.90;;;;;;5091429;28;20489;-73
2021/06/22 02:20:06;;;;;;;58.50;2.60;;;17.60;99.90;;;;;;5091546;28;20450;-73
2021/06/22 02:22:34;;;;;;;58.70;2.90;;;17.60;99.90;;;;;;5090958;28;21066;-73
2021/06/22 02:25:01;;;;;;;58.70;2.60;;;17.60;99.90;;;;;;5091430;28;20556;-73
2021/06/22 02:27:30;;;;;;;57.90;2.40;;;17.60;99.90;;;;;;5091469;28;20476;-73
2021/06/22 02:29:57;;;;;;;58.40;2.60;;;17.60;99.90;;;;;;5091433;28;20553;-73
2021/06/22 02:32:27;;;;;;;58.23;2.60;;;17.50;99.90;;;;;;5091420;28;20472;-73
2021/06/22 02:34:53;;;;;;;59.07;3.50;;;17.50;99.90;;;;;;5091185;28;20473;-74
2021/06/22 02:37:20;;;;;;;58.13;2.50;;;17.50;99.90;;;;;;5091833;28;20524;-73
2021/06/22 02:39:48;;;;;;;58.27;2.50;;;17.50;99.90;;;;;;5091461;28;20450;-73
2021/06/22 02:42:15;;;;;;;58.50;2.60;;;17.50;99.90;;;;;;5091146;28;20468;-73
2021/06/22 02:44:43;;;;;;;58.33;2.60;;;17.50;99.90;;;;;;5091163;28;20480;-73
2021/06/22 02:47:10;;;;;;;58.07;2.60;;;17.50;99.90;;;;;;5091765;28;20537;-73
2021/06/22 02:49:38;;;;;;;58.63;2.63;;;17.60;99.90;;;;;;5094733;28;20445;-73
2021/06/22 02:52:05;;;;;;;58.43;2.57;;;17.60;99.90;;;;;;5094692;28;20572;-73
2021/06/22 02:54:37;;;;;;;58.17;2.60;;;17.50;99.90;;;;;;5094959;28;20556;-73
2021/06/22 02:57:04;;;;;;;58.37;2.50;;;17.50;99.90;;;;;;5094793;28;20457;-73
2021/06/22 02:59:31;;;;;;;58.13;2.43;;;17.50;99.90;;;;;;5094662;28;20536;-73
2021/06/22 03:01:58;;;;;;;57.97;2.40;;;17.50;99.90;;;;;;5094056;28;20442;-73
2021/06/22 03:04:25;;;;;;;58.47;3.10;;;17.50;99.90;;;;;;5094956;28;20480;-73
2021/06/22 03:06:53;;;;;;;58.30;2.60;;;17.50;99.90;;;;;;5094473;28;20536;-73
2021/06/22 03:09:20;;;;;;;58.87;2.93;;;17.50;99.90;;;;;;5094622;28;20482;-73
2021/06/22 03:11:47;;;;;;;58.17;2.57;;;17.40;99.90;;;;;;5093990;28;21031;-73
2021/06/22 03:14:14;;;;;;;58.47;2.90;;;17.40;99.90;;;;;;5094406;28;20528;-73
2021/06/22 03:16:42;;;;;;;58.40;2.60;;;17.40;99.90;;;;;;5094385;28;20527;-73
2021/06/22 03:19:08;;;;;;;58.00;2.80;;;17.40;99.90;;;;;;5094520;28;20529;-73
2021/06/22 03:21:36;;;;;;;58.23;2.60;;;17.40;99.90;;;;;;5093978;28;20540;-73
2021/06/22 03:24:05;;;;;;;58.30;2.70;;;17.40;99.90;;;;;;5093970;28;21008;-73
2021/06/22 03:26:32;;;;;;;58.50;2.60;;;17.40;99.90;;;;;;5094121;28;20461;-73
2021/06/22 03:28:58;;;;;;;58.17;2.77;;;17.40;99.90;;;;;;5094064;28;20499;-73
2021/06/22 03:31:25;;;;;;;58.27;2.67;;;17.40;99.90;;;;;;5093482;28;20561;-73
2021/06/22 03:33:52;;;;;;;58.13;2.63;;;17.50;99.90;;;;;;5093990;28;20553;-73
2021/06/22 03:36:19;;;;;;;58.13;2.57;;;17.50;99.90;;;;;;5094188;28;20452;-73
2021/06/22 03:38:46;;;;;;;58.37;2.60;;;17.50;99.90;;;;;;5094054;28;20476;-73
2021/06/22 03:41:14;;;;;;;58.50;2.40;;;17.50;99.90;;;;;;5093790;28;20865;-73
2021/06/22 03:43:41;;;;;;;58.27;2.73;;;17.50;99.90;;;;;;5093448;28;20496;-73
2021/06/22 03:46:08;;;;;;;58.47;2.80;;;17.50;99.90;;;;;;5093982;28;20951;-73
2021/06/22 03:48:35;;;;;;;57.70;2.80;;;17.60;99.90;;;;;;5093804;28;20824;-73
2021/06/22 03:51:02;;;;;;;58.17;2.70;;;17.60;99.90;;;;;;5093465;28;20517;-73
2021/06/22 03:53:29;;;;;;;58.40;2.60;;;17.60;99.90;;;;;;5093835;28;20468;-73
2021/06/22 03:55:56;;;;;;;58.57;2.80;;;17.70;99.90;;;;;;5093971;28;20540;-73
2021/06/22 03:58:24;;;;;;;58.43;3.20;;;17.70;99.90;;;;;;5092754;28;20825;-73
2021/06/22 04:00:52;;;;;;;57.83;2.60;;;17.70;99.90;;;;;;5093736;28;20437;-71
2021/06/22 04:03:18;;;;;;;58.40;2.70;;;17.80;99.90;;;;;;5093527;28;20472;-72
2021/06/22 04:05:45;;;;;;;58.30;2.60;;;17.80;99.90;;;;;;5093320;28;20442;-72
2021/06/22 04:08:13;;;;;;;58.40;2.60;;;17.90;99.90;;;;;;5093369;28;20457;-73
2021/06/22 04:10:40;;;;;;;58.27;2.57;;;17.90;99.90;;;;;;5093047;28;20496;-73
2021/06/22 04:13:07;;;;;;;57.97;2.60;;;18.00;99.90;;;;;;5092722;28;20905;-72
2021/06/22 04:15:35;;;;;;;58.60;3.17;;;18.00;99.90;;;;;;5093174;28;20488;-73
2021/06/22 04:18:04;;;;;;;58.17;2.57;;;18.00;99.90;;;;;;5093323;28;20484;-73
2021/06/22 04:20:31;;;;;;;58.23;2.40;;;18.00;99.90;;;;;;5093169;28;20527;-73
2021/06/22 04:22:58;;;;;;;59.07;3.53;;;18.00;99.90;;;;;;5092876;28;21008;-73
2021/06/22 04:25:25;;;;;;;58.20;2.60;;;18.00;99.90;;;;;;5092515;28;20945;-73
2021/06/22 04:27:53;;;;;;;57.93;2.43;;;18.00;99.90;;;;;;5093108;28;20528;-73
2021/06/22 04:30:20;;;;;;;58.30;2.63;;;18.10;99.90;;;;;;5093061;28;20541;-74
2021/06/22 04:32:49;;;;;;;58.60;2.70;;;18.10;99.90;;;;;;5092736;28;20458;-73
2021/06/22 04:35:16;;;;;;;58.20;2.67;;;18.10;99.90;;;;;;5092918;28;20468;-72
2021/06/22 04:37:44;;;;;;;58.07;2.60;;;18.10;99.90;;;;;;5092582;28;20452;-72
2021/06/22 04:40:12;;;;;;;58.20;2.90;;;18.10;99.90;;;;;;5092660;28;20530;-72
2021/06/22 04:42:39;;;;;;;57.80;2.63;;;18.10;99.90;;;;;;5092512;28;20462;-72
2021/06/22 04:45:07;;;;;;;58.23;3.00;;;18.10;99.90;;;;;;5092570;28;20446;-72
2021/06/22 04:47:34;;;;;;;59.07;3.20;;;18.10;99.90;;;;;;5092873;28;20452;-72
2021/06/22 04:50:03;;;;;;;58.60;2.80;;;18.10;99.90;;;;;;5092475;28;20859;-72
2021/06/22 04:52:29;;;;;;;57.83;2.70;;;18.10;99.90;;;;;;5091815;28;20576;-72
2021/06/22 04:54:56;;;;;;;59.03;3.67;;;18.10;99.90;;;;;;5092335;28;21024;-72
2021/06/22 04:57:23;;;;;;;58.30;2.80;;;18.10;99.90;;;;;;5092361;28;20540;-72
2021/06/22 04:59:50;;;;;;;57.40;2.43;;;18.20;99.90;;;;;;5092411;28;20535;-73
2021/06/22 05:02:17;;;;;;;58.30;2.80;;;18.20;99.90;;;;;;5092031;28;20467;-72
2021/06/22 05:04:44;;;;;;;58.30;2.80;;;18.20;99.90;;;;;;5092506;28;20885;-72
2021/06/22 05:07:13;;;;;;;58.30;2.90;;;18.30;99.90;;;;;;5092087;28;20453;-72
2021/06/22 05:09:39;;;;;;;57.83;2.60;;;18.40;99.90;;;;;;5092025;28;20533;-72
2021/06/22 05:12:07;;;;;;;58.27;3.30;;;18.40;99.90;;;;;;5091431;28;21014;-72
2021/06/22 05:14:34;;;;;;;57.67;2.73;;;18.50;99.90;;;;;;5091981;28;20451;-72
2021/06/22 05:17:01;;;;;;;57.87;3.27;;;18.50;99.90;;;;;;5092357;28;20544;-72
2021/06/22 05:19:28;;;;;;;57.87;2.60;;;18.50;99.90;;;;;;5092479;28;20446;-72
2021/06/22 05:21:55;;;;;;;58.50;2.93;;;18.60;99.90;;;;;;5091804;28;20441;-72
2021/06/22 05:24:23;;;;;;;58.47;3.40;;;18.50;99.90;;;;;;5092011;28;20528;-72
2021/06/22 05:26:50;;;;;;;58.30;3.03;;;18.50;99.90;;;;;;5092290;28;20541;-72
2021/06/22 05:29:16;;;;;;;58.60;2.60;;;18.60;99.90;;;;;;5092000;28;20526;-72
2021/06/22 05:31:46;;;;;;;58.00;2.57;;;18.60;99.90;;;;;;5092131;28;20893;-72
2021/06/22 05:34:14;;;;;;;57.90;3.07;;;18.60;99.90;;;;;;5094171;28;20964;-73
2021/06/22 05:36:43;;;;;;;58.90;3.33;;;18.70;99.90;;;;;;5094225;28;20460;-73
2021/06/22 05:39:11;;;;;;;57.87;2.57;;;18.70;99.90;;;;;;5094023;28;20480;-73
2021/06/22 05:41:39;;;;;;;58.40;3.90;;;18.80;99.90;;;;;;5093045;28;20455;-73
2021/06/22 05:44:07;;;;;;;58.50;2.80;;;18.90;99.90;;;;;;5091955;28;20466;-73
2021/06/22 05:46:34;;;;;;;58.10;2.40;;;18.90;99.90;;;;;;5091795;28;20868;-73
2021/06/22 05:49:01;;;;;;;58.30;3.43;;;19.00;99.90;;;;;;5093385;28;20443;-73
2021/06/22 05:51:28;;;;;;;57.97;2.70;;;19.00;99.90;;;;;;5091054;28;20561;-73
2021/06/22 05:53:55;;;;;;;58.60;3.30;;;19.00;99.90;;;;;;5090597;28;20746;-73
2021/06/22 05:56:22;;;;;;;58.13;2.53;;;19.10;99.90;;;;;;5090172;28;20835;-73
2021/06/22 05:58:51;;;;;;;58.20;2.87;;;19.00;99.90;;;;;;5090168;28;20545;-73
2021/06/22 06:01:18;;;;;;;58.27;2.80;;;19.10;99.90;;;;;;5089514;28;20543;-73
2021/06/22 06:03:45;;;;;;;58.10;2.50;;;19.20;99.90;;;;;;5089630;28;20498;-73
2021/06/22 06:06:11;;;;;;;58.60;3.43;;;19.30;99.90;;;;;;5090732;28;20816;-73
2021/06/22 06:08:38;;;;;;;58.37;3.23;;;19.30;99.90;;;;;;5090950;28;20481;-73
2021/06/22 06:11:06;;;;;;;58.07;2.83;;;19.40;99.90;;;;;;5091544;28;20527;-73
2021/06/22 06:13:34;;;;;;;57.93;2.70;;;19.50;99.90;;;;;;5091377;28;21046;-73
2021/06/22 06:16:03;;;;;;;58.40;3.23;;;19.50;99.90;;;;;;5091565;28;20491;-73
2021/06/22 06:18:31;;;;;;;57.97;2.80;;;19.60;99.90;;;;;;5091813;28;20454;-73
2021/06/22 06:20:58;;;;;;;58.50;3.27;;;19.60;99.90;;;;;;5092106;28;20537;-73
2021/06/22 06:23:28;;;;;;;58.23;3.20;;;19.70;99.90;;;;;;5095246;28;20858;-73
2021/06/22 06:25:55;;;;;;;58.00;2.97;;;19.70;99.90;;;;;;5095623;28;20463;-73
2021/06/22 06:28:25;;;;;;;58.30;2.70;;;19.80;99.90;;;;;;5095837;28;20480;-73
2021/06/22 06:30:55;;;;;;;57.87;2.70;;;19.80;99.90;;;;;;5095950;28;20532;-73
2021/06/22 06:33:23;;;;;;;58.37;2.80;;;19.90;99.90;;;;;;5095162;28;20574;-73
2021/06/22 06:35:53;;;;;;;58.60;3.10;;;20.00;99.90;;;;;;5095586;28;20452;-73
2021/06/22 06:38:19;;;;;;;57.80;2.43;;;20.10;99.90;;;;;;5095408;28;20449;-72
2021/06/22 06:40:46;;;;;;;58.90;2.87;;;20.20;99.90;;;;;;5095387;28;20864;-72
2021/06/22 06:43:13;;;;;;;62.80;3.30;;;20.20;99.90;;;;;;5094601;28;20439;-74
2021/06/22 06:45:41;;;;;;;58.70;3.47;;;20.30;99.20;;;;;;5095813;28;20296;-73
2021/06/22 06:48:09;;;;;;;58.10;2.77;;;20.20;96.40;;;;;;5095333;28;20444;-73
2021/06/22 06:50:37;;;;;;;58.80;3.30;;;20.30;95.70;;;;;;5095542;28;20479;-73
2021/06/22 06:53:04;;;;;;;58.30;2.90;;;20.30;95.70;;;;;;5094502;28;20932;-73
2021/06/22 06:55:35;;;;;;;58.70;3.10;;;20.30;94.50;;;;;;5094936;28;20535;-72
2021/06/22 06:58:04;;;;;;;59.00;3.67;;;20.30;94.60;;;;;;5095402;28;20539;-72
2021/06/22 07:00:32;;;;;;;58.40;3.07;;;20.40;93.80;;;;;;5095344;28;20888;-73
2021/06/22 07:03:00;;;;;;;59.37;4.30;;;20.40;93.90;;;;;;5094575;28;20491;-72
2021/06/22 07:05:27;;;;;;;57.50;2.60;;;20.50;93.90;;;;;;5094584;28;20487;-72
2021/06/22 07:07:55;;;;;;;58.27;2.93;;;20.60;93.60;;;;;;5094516;28;20546;-72
2021/06/22 07:10:22;;;;;;;58.37;2.80;;;20.70;93.70;;;;;;5094926;28;20512;-73
2021/06/22 07:12:49;;;;;;;58.33;2.97;;;20.70;90.50;;;;;;5094636;28;20925;-75
2021/06/22 07:15:18;;;;;;;59.47;3.73;;;20.80;81.90;;;;;;5095032;28;20502;-72
2021/06/22 07:17:45;;;;;;;61.50;3.40;;;20.90;87.10;;;;;;5089933;28;20844;-73
2021/06/22 07:20:12;;;;;;;58.80;2.90;;;20.90;84.50;;;;;;5079528;28;20212;-73
2021/06/22 07:22:40;;;;;;;58.27;2.60;;;20.90;89.50;;;;;;5093189;28;20560;-75
2021/06/22 07:25:09;;;;;;;58.90;3.47;;;21.00;89.30;;;;;;5094034;28;20464;-73
2021/06/22 07:27:36;;;;;;;57.97;2.33;;;21.10;84.90;;;;;;5093686;28;20532;-73
2021/06/22 07:30:04;;;;;;;58.77;3.27;;;21.20;84.20;;;;;;5094233;28;20494;-73
2021/06/22 07:32:32;;;;;;;58.50;3.67;;;21.10;85.30;;;;;;5093920;28;20771;-73
2021/06/22 07:34:59;;;;;;;59.80;2.90;;;21.10;76.20;;;;;;5093725;28;20448;-72
2021/06/22 07:37:25;;;;;;;58.90;3.33;;;21.10;71.50;;;;;;5094245;28;20494;-72
2021/06/22 07:39:52;;;;;;;58.60;2.93;;;21.10;71.50;;;;;;5094557;28;20473;-72
2021/06/22 07:42:21;;;;;;;58.20;2.77;;;21.10;74.90;;;;;;5094118;28;20469;-72
2021/06/22 07:44:48;;;;;;;58.80;3.33;;;21.00;71.10;;;;;;5094905;28;21041;-72
2021/06/22 07:47:15;;;;;;;58.30;2.80;;;21.00;68.60;;;;;;5094137;28;20505;-72
2021/06/22 07:49:41;;;;;;;58.80;3.50;;;21.00;70.30;;;;;;5093874;28;21026;-71
2021/06/22 07:52:10;;;;;;;58.70;3.10;;;21.10;63.80;;;;;;5094029;28;20518;-71
2021/06/22 07:54:37;;;;;;;60.07;2.97;;;21.20;65.80;;;;;;5094538;28;20529;-72
2021/06/22 07:57:04;;;;;;;58.87;3.30;;;21.30;54.10;;;;;;5094523;28;20542;-72
2021/06/22 07:59:33;;;;;;;58.70;3.30;;;21.40;61.70;;;;;;5094036;28;20534;-72
2021/06/22 08:01:59;;;;;;;58.37;3.20;;;21.50;31.10;;;;;;5093742;28;20447;-73
2021/06/22 08:04:26;;;;;;;59.00;3.00;;;21.50;42.40;;;;;;5094129;28;20485;-72
2021/06/22 08:06:54;;;;;;;58.80;3.70;;;21.50;40.00;;;;;;5094528;28;20453;-72
2021/06/22 08:09:21;;;;;;;58.27;3.10;;;21.50;32.10;;;;;;5093826;28;20446;-72
2021/06/22 08:11:48;;;;;;;58.70;3.30;;;21.40;48.40;;;;;;5094112;28;21025;-72
2021/06/22 08:14:15;;;;;;;58.70;3.00;;;21.40;44.00;;;;;;5094000;28;20824;-72
2021/06/22 08:16:44;;;;;;;58.70;3.10;;;21.30;33.80;;;;;;5093415;28;20549;-72
2021/06/22 08:19:11;;;;;;;58.60;3.13;;;21.30;46.20;;;;;;5094161;28;20478;-72
2021/06/22 08:21:39;;;;;;;60.00;4.73;;;21.20;44.70;;;;;;5093858;28;20539;-71
2021/06/22 08:24:06;;;;;;;58.67;3.00;;;21.20;37.60;;;;;;5093625;28;20466;-71
2021/06/22 08:26:33;;;;;;;58.20;3.10;;;21.00;48.20;;;;;;5093714;28;20962;-71
2021/06/22 08:29:01;;;;;;;58.70;2.67;;;21.00;41.50;;;;;;5094101;28;20544;-71
2021/06/22 08:31:28;;;;;;;58.30;2.60;;;21.00;41.50;;;;;;5094068;28;20950;-71
2021/06/22 08:33:56;;;;;;;58.50;3.03;;;20.90;51.70;;;;;;5092802;28;20576;-71
2021/06/22 08:36:23;;;;;;;58.77;3.60;;;21.00;44.10;;;;;;5092668;28;20448;-71
2021/06/22 08:38:49;;;;;;;59.87;3.03;;;21.00;47.20;;;;;;5092816;28;20489;-71
2021/06/22 08:41:18;;;;;;;58.50;2.70;;;21.10;49.50;;;;;;5092610;28;20521;-72
2021/06/22 08:43:46;;;;;;;58.30;3.13;;;21.20;55.30;;;;;;5092189;28;21036;-72
2021/06/22 08:46:13;;;;;;;58.33;2.80;;;21.10;30.50;;;;;;5092802;28;20525;-72
2021/06/22 08:48:40;;;;;;;59.33;3.00;;;21.00;28.90;;;;;;5092712;28;20459;-72
2021/06/22 08:51:09;;;;;;;58.30;2.93;;;20.90;36.20;;;;;;5092395;28;20535;-72
2021/06/22 08:53:36;;;;;;;58.47;3.20;;;20.80;38.00;;;;;;5092107;28;20508;-72
2021/06/22 08:56:03;;;;;;;57.97;2.70;;;20.80;47.90;;;;;;5092408;28;20453;-72
2021/06/22 08:58:30;;;;;;;58.30;3.27;;;20.80;51.00;;;;;;5092237;28;20821;-73
2021/06/22 09:00:57;;;;;;;58.40;3.23;;;20.80;57.50;;;;;;5092448;28;20445;-72
2021/06/22 09:03:26;;;;;;;58.47;3.17;;;20.80;57.30;;;;;;5092127;28;20539;-72
2021/06/22 09:05:55;;;;;;;59.17;3.23;;;20.80;56.90;;;;;;5092215;28;20449;-72
2021/06/22 09:08:24;;;;;;;58.80;3.27;;;20.80;56.40;;;;;;5092304;28;20455;-72
2021/06/22 09:10:53;;;;;;;59.33;3.27;;;20.80;60.70;;;;;;5091967;28;20493;-72
2021/06/22 09:13:22;;;;;;;58.47;3.00;;;20.80;60.30;;;;;;5091982;28;20488;-72
2021/06/22 09:15:51;;;;;;;58.33;3.20;;;20.70;57.60;;;;;;5091128;28;20535;-73
2021/06/22 09:18:32;;;;;;;58.07;2.90;;;20.60;53.40;;;;;;5092184;28;20866;-73
2021/06/22 09:21:01;;;;;;;58.80;3.00;;;20.40;54.20;;;;;;5092096;28;20487;-73
2021/06/22 09:23:31;;;;;;;58.47;3.10;;;20.40;58.10;;;;;;5091542;28;20470;-73
2021/06/22 09:25:59;;;;;;;58.50;3.87;;;20.30;56.00;;;;;;5092027;28;20542;-73
2021/06/22 09:28:28;;;;;;;58.40;3.13;;;20.30;61.20;;;;;;5091874;28;20444;-72
2021/06/22 09:30:58;;;;;;;58.07;3.00;;;20.40;62.10;;;;;;5091952;28;20478;-72
2021/06/22 09:33:30;;;;;;;58.60;3.50;;;20.40;58.10;;;;;;5091515;28;20494;-72
2021/06/22 09:36:11;;;;;;;58.27;2.83;;;20.60;52.90;;;;;;5091711;28;20978;-72
2021/06/22 09:38:41;;;;;;;58.57;3.00;;;20.70;48.50;;;;;;5091911;28;20453;-72
2021/06/22 09:41:11;;;;;;;58.60;3.13;;;20.80;43.90;;;;;;5091639;28;20529;-72
2021/06/22 09:43:41;;;;;;;58.37;3.07;;;20.90;43.80;;;;;;5091613;28;20556;-72
2021/06/22 09:46:08;;;;;;;58.80;3.33;;;20.90;50.90;;;;;;5091806;28;20443;-72
2021/06/22 09:48:54;;;;;;;58.47;3.43;;;20.90;57.50;;;;;;5091834;28;20541;-72
2021/06/22 09:51:28;;;;;;;58.30;2.50;;;21.00;48.40;;;;;;5091760;28;20454;-72
2021/06/22 09:54:12;;;;;;;58.27;2.43;;;21.10;50.10;;;;;;5091504;28;21002;-72
2021/06/22 09:56:51;;;;;;;58.53;3.73;;;21.20;32.00;;;;;;5093248;28;20969;-72
2021/06/22 09:59:18;;;;;;;58.20;2.60;;;21.40;41.60;;;;;;5095806;28;20953;-72
2021/06/22 10:01:45;;;;;;;58.47;3.60;;;21.70;16.50;;;;;;5095399;28;20446;-72
2021/06/22 10:04:18;;;;;;;58.37;2.90;;;21.80;1.70;;;;;;5095747;28;20525;-72
2021/06/22 10:06:49;;;;;;;58.50;3.37;;;22.00;9.60;;;;;;5095629;28;20533;-72
2021/06/22 10:09:21;;;;;;;58.17;2.57;;;22.10;1.00;;;;;;5095460;28;20473;-72
2021/06/22 10:11:48;;;;;;;58.70;3.70;;;22.20;1.00;;;;;;5095528;28;20543;-73
2021/06/22 10:14:24;;;;;;;59.27;3.63;;;22.20;1.00;;;;;;5095541;28;21006;-72
2021/06/22 10:16:52;;;;;;;58.97;3.13;;;22.20;1.00;;;;;;5095510;28;20929;-71
2021/06/22 10:19:22;;;;;;;57.93;3.00;;;22.10;1.00;;;;;;5095641;28;20446;-71
2021/06/22 10:21:50;;;;;;;58.87;3.90;;;21.90;1.00;;;;;;5095070;28;20447;-70
2021/06/22 10:24:19;;;;;;;58.07;3.10;;;21.70;1.00;;;;;;5095464;28;20526;-71
2021/06/22 10:26:47;;;;;;;58.10;2.60;;;21.60;1.00;;;;;;5095311;28;20544;-71
2021/06/22 10:29:18;;;;;;;60.40;3.43;;;21.50;1.00;;;;;;5095404;28;20442;-71
2021/06/22 10:31:46;;;;;;;58.80;3.10;;;21.40;1.00;;;;;;5095062;28;20446;-71
2021/06/22 10:34:13;;;;;;;58.70;3.17;;;21.30;1.00;;;;;;5094894;28;21005;-71
2021/06/22 10:36:55;;;;;;;58.40;2.73;;;21.20;1.00;;;;;;5095392;28;20536;-71
2021/06/22 10:39:33;;;;;;;58.00;3.20;;;21.10;1.00;;;;;;5095493;28;20449;-72
2021/06/22 10:42:08;;;;;;;57.70;3.27;;;21.10;1.00;;;;;;5094767;28;20454;-71
2021/06/22 10:44:46;;;;;;;59.00;3.53;;;21.00;1.00;;;;;;5094815;28;20522;-72
2021/06/22 10:47:27;;;;;;;59.00;3.73;;;21.00;1.00;;;;;;5094870;28;20532;-72
2021/06/22 10:50:08;;;;;;;58.07;3.00;;;21.00;1.00;;;;;;5094954;28;20480;-72
2021/06/22 10:53:05;;;;;;;57.50;2.70;;;20.90;1.00;;;;;;5094366;28;20547;-72
2021/06/22 10:56:16;;;;;;;58.80;3.83;;;20.80;1.00;;;;;;5093669;28;20496;-71
2021/06/22 10:58:58;;;;;;;58.43;2.60;;;20.70;1.00;;;;;;5094839;28;20455;-72
2021/06/22 11:01:25;;;;;;;58.03;3.07;;;20.60;1.00;;;;;;5094634;28;20578;-72
2021/06/22 11:04:07;;;;;;;58.60;3.00;;;20.30;1.00;;;;;;5094457;28;21030;-72
2021/06/22 11:06:34;;;;;;;58.67;3.37;;;20.20;1.00;;;;;;5094614;28;20459;-72
2021/06/22 11:09:21;;;;;;;58.40;2.77;;;20.20;1.00;;;;;;5093327;28;20451;-72
2021/06/22 11:11:49;;;;;;;58.80;3.30;;;20.10;1.00;;;;;;5093914;28;20932;-73
2021/06/22 11:14:17;;;;;;;58.70;2.80;;;20.00;1.00;;;;;;5094449;28;20482;-72
2021/06/22 11:16:44;;;;;;;58.40;2.70;;;19.90;1.00;;;;;;5094459;28;20456;-71
2021/06/22 11:19:15;;;;;;;58.43;2.63;;;19.80;1.00;;;;;;5094404;28;20500;-72
2021/06/22 11:21:56;;;;;;;58.17;2.47;;;19.70;13.80;;;;;;5093943;28;20447;-73
2021/06/22 11:24:32;;;;;;;58.17;2.80;;;19.70;27.20;;;;;;5093978;28;20449;-72
2021/06/22 11:27:08;;;;;;;58.27;3.07;;;19.80;36.00;;;;;;5094245;28;20533;-72
2021/06/22 11:29:53;;;;;;;59.07;3.43;;;19.90;42.70;;;;;;5094065;28;20529;-72
2021/06/22 11:32:37;;;;;;;58.60;3.00;;;20.00;42.80;;;;;;5093584;28;20474;-72
2021/06/22 11:35:14;;;;;;;58.27;2.60;;;20.10;39.90;;;;;;5094186;28;20447;-72
2021/06/22 11:37:46;;;;;;;58.27;2.93;;;20.00;27.50;;;;;;5094083;28;20475;-71
2021/06/22 11:40:20;;;;;;;58.40;2.70;;;19.90;27.10;;;;;;5093694;28;20537;-71
2021/06/22 11:43:07;;;;;;;58.57;2.77;;;19.90;28.20;;;;;;5093456;28;20467;-73
2021/06/22 11:45:34;;;;;;;58.20;3.03;;;19.90;28.00;;;;;;5093964;28;20452;-72
2021/06/22 11:48:03;;;;;;;58.80;3.43;;;19.90;27.30;;;;;;5093698;28;20897;-72
2021/06/22 11:50:37;;;;;;;58.40;3.23;;;19.90;27.10;;;;;;5093573;28;20493;-72
2021/06/22 11:53:10;;;;;;;58.17;2.43;;;19.90;27.10;;;;;;5093251;28;20826;-72
2021/06/22 11:55:48;;;;;;;58.17;3.00;;;19.90;23.70;;;;;;5094026;28;20537;-72
2021/06/22 11:58:34;;;;;;;58.40;2.37;;;19.90;20.80;;;;;;5093523;28;20530;-72
2021/06/22 12:01:06;;;;;;;57.93;2.67;;;19.80;6.20;;;;;;5093462;28;20861;-72
2021/06/22 12:03:33;;;;;;;58.13;3.00;;;19.80;1.00;;;;;;5093141;28;20988;-72
2021/06/22 12:06:09;;;;;;;58.13;2.80;;;19.70;1.00;;;;;;5093303;28;20939;-72
2021/06/22 12:08:38;;;;;;;58.30;2.60;;;19.60;1.00;;;;;;5093443;28;20481;-73
2021/06/22 12:11:05;;;;;;;58.10;2.60;;;19.50;1.00;;;;;;5093219;28;20923;-72
2021/06/22 12:13:36;;;;;;;57.83;2.30;;;19.50;1.80;;;;;;5093737;28;20936;-73
2021/06/22 12:16:24;;;;;;;59.17;2.70;;;19.50;2.40;;;;;;5091838;28;20450;-74
2021/06/22 12:18:53;;;;;;;58.60;2.80;;;19.50;5.10;;;;;;5091613;28;20446;-72
2021/06/22 12:21:20;;;;;;;58.37;2.90;;;19.50;5.90;;;;;;5092394;28;20541;-74
2021/06/22 12:23:48;;;;;;;58.17;2.40;;;19.40;6.90;;;;;;5092457;28;20467;-74
2021/06/22 12:26:16;;;;;;;58.60;2.70;;;19.40;4.50;;;;;;5092833;28;20504;-75
2021/06/22 12:28:45;;;;;;;58.27;2.50;;;19.40;3.60;;;;;;5092806;28;20446;-74
2021/06/22 12:31:13;;;;;;;58.20;2.70;;;19.30;5.20;;;;;;5093005;28;20891;-74
2021/06/22 12:33:42;;;;;;;58.60;2.90;;;19.20;1.00;;;;;;5092721;28;20482;-74
2021/06/22 12:36:11;;;;;;;59.27;2.90;;;19.20;1.00;;;;;;5092831;28;20456;-74
2021/06/22 12:38:40;;;;;;;58.37;2.63;;;19.10;1.00;;;;;;5092798;28;20450;-74
2021/06/22 12:41:09;;;;;;;58.27;2.33;;;19.00;1.00;;;;;;5092578;28;20446;-75
2021/06/22 12:43:45;;;;;;;57.83;2.20;;;18.90;1.00;;;;;;5092429;28;20965;-73
2021/06/22 12:46:13;;;;;;;58.40;2.80;;;18.80;1.00;;;;;;5092539;28;20457;-74
2021/06/22 12:48:42;;;;;;;58.23;2.50;;;18.70;1.00;;;;;;5092683;28;20497;-73
2021/06/22 12:51:09;;;;;;;58.37;2.40;;;18.60;1.00;;;;;;5092436;28;20496;-74
2021/06/22 12:53:36;;;;;;;58.27;2.50;;;18.50;1.00;;;;;;5092042;28;20485;-74